K-ocean — MCXD5 — position and weather

sailwx.info

Track history (hours):
 
Tides and Currents Weather Stations Pressure Air Temp Water Temp Dewpoint Dewpoint Depression Visibility Wind Speed Wind Dir Waves Ship Positions

K-ocean

Last reported at 2018-May-20 17:30 UTC. Time now 2018-May-20 17:53 UTC.
Position N 37°37' W 000°31'.

Length 121 m; draft 5 m.

Type: Cargo ship. MMSI: 235800000.

Date/timePositionNaut miles runAvg speedWind from/ knotsBaromVisibWave heightAir tempDewpointWater temp
2018-May-20 17:30N 37°37' W 000°31'712.8
2018-May-20 16:59N 37°43' W 000°26'612.9
2018-May-20 16:30N 37°48' W 000°22'713.5
2018-May-20 16:00N 37°53' W 000°18'713.4
2018-May-20 15:30N 37°59' W 000°13'713.6
2018-May-20 14:58N 38°05' W 000°08'813.9
2018-May-20 14:25N 38°12' W 000°03'1014.3
2018-May-20 13:43N 38°20' E 000°05'16714.4
2018-May-20 02:11N 40°46' E 001°49'214.0
2018-May-20 02:00N 40°48' E 001°50'714.2
2018-May-20 01:30N 40°54' E 001°55'714.5
2018-May-20 01:00N 41°01' E 001°59'714.4
2018-May-20 00:31N 41°07' E 002°04'714.5
2018-May-20 00:01N 41°13' E 002°08'612.0
2018-May-19 23:31N 41°19' E 002°10'1 1.1
2018-May-19 23:00N 41°19' E 002°09'0 0.0
2018-May-19 22:30N 41°19' E 002°09'0 0.0
2018-May-19 22:00N 41°19' E 002°09'0 0.0
2018-May-19 21:30N 41°19' E 002°09'0 0.0
2018-May-19 21:00N 41°19' E 002°09'0 0.0
2018-May-19 20:30N 41°19' E 002°09'0 0.0
2018-May-19 20:00N 41°19' E 002°09'0 0.0
2018-May-19 19:30N 41°19' E 002°09'0 0.0
2018-May-19 19:00N 41°19' E 002°09'0 0.0
2018-May-19 18:30N 41°19' E 002°09'0 0.0
2018-May-19 18:00N 41°19' E 002°09'0 0.0
2018-May-19 17:30N 41°19' E 002°09'0 0.0
2018-May-19 17:00N 41°19' E 002°09'0 0.0
2018-May-19 16:30N 41°19' E 002°09'0 0.0
2018-May-19 16:00N 41°19' E 002°09'0 0.0
2018-May-19 15:30N 41°19' E 002°09'0 0.0
2018-May-19 15:00N 41°19' E 002°09'0 0.0
2018-May-19 14:30N 41°19' E 002°09'0 0.0
2018-May-19 14:00N 41°19' E 002°09'0 0.0
2018-May-19 13:30N 41°19' E 002°09'0 0.0
2018-May-19 13:00N 41°19' E 002°09'2 3.7
2018-May-19 12:30N 41°19' E 002°12'1 1.0
2018-May-19 12:00N 41°19' E 002°11'0 0.1
2018-May-19 11:30N 41°19' E 002°11'0 0.0
2018-May-19 11:00N 41°19' E 002°11'0 0.0
2018-May-19 10:30N 41°19' E 002°11'0 0.0
2018-May-19 10:00N 41°19' E 002°11'0 0.0
2018-May-19 09:30N 41°19' E 002°11'0 0.0
2018-May-19 09:00N 41°19' E 002°11'0 0.0
2018-May-19 08:30N 41°19' E 002°11'0 0.0
2018-May-19 08:00N 41°19' E 002°11'0 0.0
2018-May-19 07:30N 41°19' E 002°11'0 0.1
2018-May-19 07:00N 41°19' E 002°11'0 0.0
2018-May-19 06:30N 41°19' E 002°11'0 0.1
2018-May-19 06:00N 41°19' E 002°11'0 0.0
2018-May-19 05:30N 41°19' E 002°11'0 0.1
2018-May-19 05:01N 41°19' E 002°11'4 8.2
2018-May-19 04:30N 41°15' E 002°10'713.9
2018-May-19 04:00N 41°10' E 002°04'5 9.6
2018-May-19 03:30N 41°06' E 001°59'5 9.7
2018-May-19 03:00N 41°03' E 001°55'5 9.8
2018-May-19 02:30N 40°59' E 001°51'5 9.7
2018-May-19 02:00N 40°55' E 001°47'5 9.7
2018-May-19 01:30N 40°51' E 001°43'11510.5
2018-May-18 14:31N 39°32' W 000°07'013.9
2018-May-18 14:29N 39°32' W 000°07'713.9
2018-May-18 14:00N 39°27' W 000°13'5 9.2
2018-May-18 13:30N 39°26' W 000°19'0 0.2
2018-May-18 13:00N 39°26' W 000°19'0 0.0
2018-May-18 12:30N 39°26' W 000°19'0 0.0
2018-May-18 12:00N 39°26' W 000°19'0 0.0
2018-May-18 11:29N 39°26' W 000°19'0 0.0
2018-May-18 11:00N 39°26' W 000°19'0 0.0
2018-May-18 10:30N 39°26' W 000°19'0 0.0
2018-May-18 10:00N 39°26' W 000°19'0 0.0
2018-May-18 09:30N 39°26' W 000°19'0 0.0
2018-May-18 09:00N 39°26' W 000°19'0 0.0
2018-May-18 08:30N 39°26' W 000°19'0 0.0
2018-May-18 08:00N 39°26' W 000°19'0 0.0
2018-May-18 07:30N 39°26' W 000°19'0 0.0
2018-May-18 06:59N 39°26' W 000°19'1 2.8
2018-May-18 06:30N 39°25' W 000°18'3 4.1
2018-May-18 05:45N 39°24' W 000°14'0 1.4
2018-May-18 05:24N 39°24' W 000°15'0 1.0
2018-May-18 04:57N 39°24' W 000°15'1 1.2
2018-May-18 04:30N 39°24' W 000°14'81 9.6
2018-May-17 20:01N 38°03' W 000°05'012.9
2018-May-17 20:00N 38°03' W 000°05'2212.9
2018-May-17 18:18N 37°45' W 000°21'514.4
2018-May-17 17:57N 37°41' W 000°24'715.4
2018-May-17 17:30N 37°35' W 000°29'714.7
2018-May-17 17:00N 37°30' W 000°36'714.1
2018-May-17 16:30N 37°25' W 000°42'714.0
2018-May-17 16:00N 37°20' W 000°49'714.6
2018-May-17 15:30N 37°16' W 000°56'714.3
2018-May-17 14:59N 37°11' W 001°03'20211.8
2018-May-16 21:55N 36°01' W 004°59'613.9
2018-May-16 21:28N 36°00' W 005°06'614.0
2018-May-16 21:00N 35°59' W 005°14'714.9
2018-May-16 20:30N 35°58' W 005°23'916.6
2018-May-16 19:57N 35°55' W 005°34'715.4
2018-May-16 19:30N 35°54' W 005°43'714.3
2018-May-16 19:00N 35°55' W 005°51'714.9
2018-May-16 18:30N 35°54' W 006°01'158 5.1
2018-May-15 11:41N 33°37' W 007°36'0 0.0
2018-May-15 11:29N 33°37' W 007°36'174 4.9
2018-May-13 23:45N 35°58' W 005°33'414.0
2018-May-13 23:30N 35°59' W 005°29'713.7
2018-May-13 23:00N 35°59' W 005°20'217 7.1
2018-May-12 16:14N 37°01' W 001°01'1 2.1
2018-May-12 15:38N 37°01' W 001°02'1 2.2
2018-May-12 15:22N 37°01' W 001°03'1 2.3
2018-May-12 14:55N 37°00' W 001°04'1 2.3
2018-May-12 14:30N 37°00' W 001°06'1 2.3
2018-May-12 14:00N 36°60' W 001°07'1 2.2
2018-May-12 13:28N 36°60' W 001°08'11 6.9
2018-May-12 11:55N 37°09' W 001°01'512.6
2018-May-12 11:29N 37°13' W 000°56'612.8
2018-May-12 11:00N 37°18' W 000°52'612.8
2018-May-12 10:30N 37°22' W 000°46'613.0
2018-May-12 10:00N 37°27' W 000°41'612.8
2018-May-12 09:30N 37°32' W 000°36'712.7
2018-May-12 08:59N 37°37' W 000°31'612.9
2018-May-12 08:30N 37°43' W 000°26'913.1
2018-May-12 07:50N 37°50' W 000°20'713.4
2018-May-12 07:20N 37°56' W 000°16'513.5
2018-May-12 07:00N 37°59' W 000°13'2713.6
2018-May-12 05:00N 38°22' E 000°06'6312.1
2018-May-11 23:46N 39°24' W 000°14'413.7
2018-May-11 23:30N 39°26' W 000°18'1 0.2
2018-May-11 18:15N 39°26' W 000°20'0 0.0
2018-May-11 17:39N 39°26' W 000°20'0 0.0
2018-May-11 16:51N 39°26' W 000°20'0 0.0
2018-May-11 08:21N 39°26' W 000°20'0 0.0
2018-May-11 07:57N 39°26' W 000°20'0 0.0
2018-May-11 06:36N 39°26' W 000°20'0 0.1
2018-May-11 06:30N 39°26' W 000°19'2 4.8
2018-May-11 05:59N 39°25' W 000°17'1 1.4
2018-May-11 05:30N 39°25' W 000°16'611.4
2018-May-11 05:00N 39°29' W 000°11'11914.2
2018-May-10 20:40N 40°51' E 001°42'314.0
2018-May-10 20:29N 40°53' E 001°44'613.7
2018-May-10 20:00N 40°58' E 001°50'713.3
2018-May-10 19:30N 41°03' E 001°56'713.4
2018-May-10 19:00N 41°08' E 002°01'713.6
2018-May-10 18:30N 41°13' E 002°07'611.9
2018-May-10 18:00N 41°19' E 002°10'  
Track history (hours):
 
Tides and Currents Weather Stations Pressure Air Temp Water Temp Dewpoint Dewpoint Depression Visibility Wind Speed Wind Dir Waves Ship Positions

K-ocean

Last reported at 2018-May-20 17:30 UTC. Time now 2018-May-20 17:53 UTC.
Position N 37°37' W 000°31'.

Length 121 m; draft 5 m.

Type: Cargo ship. MMSI: 235800000.

Date/timePositionNaut miles runAvg speedWind from/ knotsBaromVisibWave heightAir tempDewpointWater temp
2018-May-20 17:30N 37°37' W 000°31'712.8
2018-May-20 16:59N 37°43' W 000°26'612.9
2018-May-20 16:30N 37°48' W 000°22'713.5
2018-May-20 16:00N 37°53' W 000°18'713.4
2018-May-20 15:30N 37°59' W 000°13'713.6
2018-May-20 14:58N 38°05' W 000°08'813.9
2018-May-20 14:25N 38°12' W 000°03'1014.3
2018-May-20 13:43N 38°20' E 000°05'16714.4
2018-May-20 02:11N 40°46' E 001°49'214.0
2018-May-20 02:00N 40°48' E 001°50'714.2
2018-May-20 01:30N 40°54' E 001°55'714.5
2018-May-20 01:00N 41°01' E 001°59'714.4
2018-May-20 00:31N 41°07' E 002°04'714.5
2018-May-20 00:01N 41°13' E 002°08'612.0
2018-May-19 23:31N 41°19' E 002°10'1 1.1
2018-May-19 23:00N 41°19' E 002°09'0 0.0
2018-May-19 22:30N 41°19' E 002°09'0 0.0
2018-May-19 22:00N 41°19' E 002°09'0 0.0
2018-May-19 21:30N 41°19' E 002°09'0 0.0
2018-May-19 21:00N 41°19' E 002°09'0 0.0
2018-May-19 20:30N 41°19' E 002°09'0 0.0
2018-May-19 20:00N 41°19' E 002°09'0 0.0
2018-May-19 19:30N 41°19' E 002°09'0 0.0
2018-May-19 19:00N 41°19' E 002°09'0 0.0
2018-May-19 18:30N 41°19' E 002°09'0 0.0
2018-May-19 18:00N 41°19' E 002°09'0 0.0
2018-May-19 17:30N 41°19' E 002°09'0 0.0
2018-May-19 17:00N 41°19' E 002°09'0 0.0
2018-May-19 16:30N 41°19' E 002°09'0 0.0
2018-May-19 16:00N 41°19' E 002°09'0 0.0
2018-May-19 15:30N 41°19' E 002°09'0 0.0
2018-May-19 15:00N 41°19' E 002°09'0 0.0
2018-May-19 14:30N 41°19' E 002°09'0 0.0
2018-May-19 14:00N 41°19' E 002°09'0 0.0
2018-May-19 13:30N 41°19' E 002°09'0 0.0
2018-May-19 13:00N 41°19' E 002°09'2 3.7
2018-May-19 12:30N 41°19' E 002°12'1 1.0
2018-May-19 12:00N 41°19' E 002°11'0 0.1
2018-May-19 11:30N 41°19' E 002°11'0 0.0
2018-May-19 11:00N 41°19' E 002°11'0 0.0
2018-May-19 10:30N 41°19' E 002°11'0 0.0
2018-May-19 10:00N 41°19' E 002°11'0 0.0
2018-May-19 09:30N 41°19' E 002°11'0 0.0
2018-May-19 09:00N 41°19' E 002°11'0 0.0
2018-May-19 08:30N 41°19' E 002°11'0 0.0
2018-May-19 08:00N 41°19' E 002°11'0 0.0
2018-May-19 07:30N 41°19' E 002°11'0 0.1
2018-May-19 07:00N 41°19' E 002°11'0 0.0
2018-May-19 06:30N 41°19' E 002°11'0 0.1
2018-May-19 06:00N 41°19' E 002°11'0 0.0
2018-May-19 05:30N 41°19' E 002°11'0 0.1
2018-May-19 05:01N 41°19' E 002°11'4 8.2
2018-May-19 04:30N 41°15' E 002°10'713.9
2018-May-19 04:00N 41°10' E 002°04'5 9.6
2018-May-19 03:30N 41°06' E 001°59'5 9.7
2018-May-19 03:00N 41°03' E 001°55'5 9.8
2018-May-19 02:30N 40°59' E 001°51'5 9.7
2018-May-19 02:00N 40°55' E 001°47'5 9.7
2018-May-19 01:30N 40°51' E 001°43'11510.5
2018-May-18 14:31N 39°32' W 000°07'013.9
2018-May-18 14:29N 39°32' W 000°07'713.9
2018-May-18 14:00N 39°27' W 000°13'5 9.2
2018-May-18 13:30N 39°26' W 000°19'0 0.2
2018-May-18 13:00N 39°26' W 000°19'0 0.0
2018-May-18 12:30N 39°26' W 000°19'0 0.0
2018-May-18 12:00N 39°26' W 000°19'0 0.0
2018-May-18 11:29N 39°26' W 000°19'0 0.0
2018-May-18 11:00N 39°26' W 000°19'0 0.0
2018-May-18 10:30N 39°26' W 000°19'0 0.0
2018-May-18 10:00N 39°26' W 000°19'0 0.0
2018-May-18 09:30N 39°26' W 000°19'0 0.0
2018-May-18 09:00N 39°26' W 000°19'0 0.0
2018-May-18 08:30N 39°26' W 000°19'0 0.0
2018-May-18 08:00N 39°26' W 000°19'0 0.0
2018-May-18 07:30N 39°26' W 000°19'0 0.0
2018-May-18 06:59N 39°26' W 000°19'1 2.8
2018-May-18 06:30N 39°25' W 000°18'3 4.1
2018-May-18 05:45N 39°24' W 000°14'0 1.4
2018-May-18 05:24N 39°24' W 000°15'0 1.0
2018-May-18 04:57N 39°24' W 000°15'1 1.2
2018-May-18 04:30N 39°24' W 000°14'81 9.6
2018-May-17 20:01N 38°03' W 000°05'012.9
2018-May-17 20:00N 38°03' W 000°05'2212.9
2018-May-17 18:18N 37°45' W 000°21'514.4
2018-May-17 17:57N 37°41' W 000°24'715.4
2018-May-17 17:30N 37°35' W 000°29'714.7
2018-May-17 17:00N 37°30' W 000°36'714.1
2018-May-17 16:30N 37°25' W 000°42'714.0
2018-May-17 16:00N 37°20' W 000°49'714.6
2018-May-17 15:30N 37°16' W 000°56'714.3
2018-May-17 14:59N 37°11' W 001°03'20211.8
2018-May-16 21:55N 36°01' W 004°59'613.9
2018-May-16 21:28N 36°00' W 005°06'614.0
2018-May-16 21:00N 35°59' W 005°14'714.9
2018-May-16 20:30N 35°58' W 005°23'916.6
2018-May-16 19:57N 35°55' W 005°34'715.4
2018-May-16 19:30N 35°54' W 005°43'714.3
2018-May-16 19:00N 35°55' W 005°51'714.9
2018-May-16 18:30N 35°54' W 006°01'158 5.1
2018-May-15 11:41N 33°37' W 007°36'0 0.0
2018-May-15 11:29N 33°37' W 007°36'174 4.9
2018-May-13 23:45N 35°58' W 005°33'414.0
2018-May-13 23:30N 35°59' W 005°29'713.7
2018-May-13 23:00N 35°59' W 005°20'217 7.1
2018-May-12 16:14N 37°01' W 001°01'1 2.1
2018-May-12 15:38N 37°01' W 001°02'1 2.2
2018-May-12 15:22N 37°01' W 001°03'1 2.3
2018-May-12 14:55N 37°00' W 001°04'1 2.3
2018-May-12 14:30N 37°00' W 001°06'1 2.3
2018-May-12 14:00N 36°60' W 001°07'1 2.2
2018-May-12 13:28N 36°60' W 001°08'11 6.9
2018-May-12 11:55N 37°09' W 001°01'512.6
2018-May-12 11:29N 37°13' W 000°56'612.8
2018-May-12 11:00N 37°18' W 000°52'612.8
2018-May-12 10:30N 37°22' W 000°46'613.0
2018-May-12 10:00N 37°27' W 000°41'612.8
2018-May-12 09:30N 37°32' W 000°36'712.7
2018-May-12 08:59N 37°37' W 000°31'612.9
2018-May-12 08:30N 37°43' W 000°26'913.1
2018-May-12 07:50N 37°50' W 000°20'713.4
2018-May-12 07:20N 37°56' W 000°16'513.5
2018-May-12 07:00N 37°59' W 000°13'2713.6
2018-May-12 05:00N 38°22' E 000°06'6312.1
2018-May-11 23:46N 39°24' W 000°14'413.7
2018-May-11 23:30N 39°26' W 000°18'1 0.2
2018-May-11 18:15N 39°26' W 000°20'0 0.0
2018-May-11 17:39N 39°26' W 000°20'0 0.0
2018-May-11 16:51N 39°26' W 000°20'0 0.0
2018-May-11 08:21N 39°26' W 000°20'0 0.0
2018-May-11 07:57N 39°26' W 000°20'0 0.0
2018-May-11 06:36N 39°26' W 000°20'0 0.1
2018-May-11 06:30N 39°26' W 000°19'2 4.8
2018-May-11 05:59N 39°25' W 000°17'1 1.4
2018-May-11 05:30N 39°25' W 000°16'611.4
2018-May-11 05:00N 39°29' W 000°11'11914.2
2018-May-10 20:40N 40°51' E 001°42'314.0
2018-May-10 20:29N 40°53' E 001°44'613.7
2018-May-10 20:00N 40°58' E 001°50'713.3
2018-May-10 19:30N 41°03' E 001°56'713.4
2018-May-10 19:00N 41°08' E 002°01'713.6
2018-May-10 18:30N 41°13' E 002°07'611.9
2018-May-10 18:00N 41°19' E 002°10'  

Dump ship's entire track history